Time;durP1;ratioP1;P1;durP2;ratioP2;P2;SDS_P1;SDS_P2;PMS_P1;PMS_P2;Temp;Humidity;BMP_temperature;BMP_pressure;BME280_temperature;BME280_humidity;BME280_pressure;Samples;Min_cycle;Max_cycle;Signal;HPM_P1;HPM_P2
2022/07/15 00:02:12;;;;;;;11.50;2.65;;;;;;;13.19;84.17;102097.41;5101167;27;20028;-84
2022/07/15 00:04:38;;;;;;;11.03;2.93;;;;;;;13.19;84.34;102099.31;5101154;27;20042;-84
2022/07/15 00:07:04;;;;;;;7.63;2.65;;;;;;;13.13;84.21;102101.78;5136386;27;20037;-84
2022/07/15 00:12:14;;;;;;;8.50;2.70;;;;;;;13.07;84.06;102091.69;5106432;27;20069;-84
2022/07/15 00:14:40;;;;;;;14.65;2.63;;;;;;;13.02;84.07;102101.50;5100255;27;20031;-84
2022/07/15 00:17:06;;;;;;;13.23;3.23;;;;;;;13.04;83.76;102104.88;5117667;27;20089;-84
2022/07/15 00:19:35;;;;;;;7.28;2.38;;;;;;;12.99;84.49;102098.16;5100869;27;20467;-84
2022/07/15 00:22:01;;;;;;;11.52;2.95;;;;;;;12.99;84.08;102102.72;5135255;27;20035;-84
2022/07/15 00:24:28;;;;;;;6.87;2.43;;;;;;;12.94;84.07;102099.78;5118597;27;20031;-84
2022/07/15 00:26:53;;;;;;;10.82;2.92;;;;;;;12.90;84.08;102104.81;5117692;27;20052;-84
2022/07/15 00:29:19;;;;;;;9.77;2.90;;;;;;;12.87;84.83;102101.63;5100564;27;20027;-84
2022/07/15 00:31:47;;;;;;;11.47;3.00;;;;;;;12.82;84.54;102103.06;5100445;27;20110;-84
2022/07/15 00:34:16;;;;;;;10.68;2.70;;;;;;;12.83;84.79;102103.94;5135827;27;20027;-85
2022/07/15 00:36:42;;;;;;;8.63;2.40;;;;;;;12.79;85.34;102108.09;5100557;27;20027;-84
2022/07/15 00:39:09;;;;;;;7.33;2.67;;;;;;;12.72;84.96;102099.03;5117508;27;20080;-84
2022/07/15 00:41:43;;;;;;;12.23;2.75;;;;;;;12.69;84.80;102092.09;5135258;27;20115;-84
2022/07/15 00:44:09;;;;;;;10.00;2.63;;;;;;;12.64;85.53;102092.69;5117212;27;20031;-85
2022/07/15 00:46:36;;;;;;;11.57;2.80;;;;;;;12.62;85.44;102097.50;5118031;27;20035;-85
2022/07/15 00:49:04;;;;;;;10.40;2.50;;;;;;;12.58;85.62;102098.09;5135331;27;20023;-84
2022/07/15 00:51:44;;;;;;;9.30;2.40;;;;;;;12.54;85.23;102100.34;5135468;27;20136;-84
2022/07/15 00:54:11;;;;;;;8.48;2.55;;;;;;;12.55;86.57;102098.47;5117102;27;20023;-84
2022/07/15 00:56:41;;;;;;;7.75;2.38;;;;;;;12.50;86.56;102092.78;5100197;27;20588;-84
2022/07/15 00:59:09;;;;;;;12.30;2.90;;;;;;;12.45;86.24;102087.94;5117182;27;20122;-84
2022/07/15 01:01:36;;;;;;;10.82;2.38;;;;;;;12.44;86.45;102089.81;5135114;27;20031;-84
2022/07/15 01:04:05;;;;;;;5.23;2.47;;;;;;;12.41;86.80;102092.09;5116549;27;20031;-85
2022/07/15 01:06:32;;;;;;;7.70;2.40;;;;;;;12.39;87.25;102091.47;5100485;27;20053;-84
2022/07/15 01:08:57;;;;;;;10.32;2.50;;;;;;;12.38;87.83;102096.03;5135278;27;20027;-84
2022/07/15 01:11:23;;;;;;;11.80;2.60;;;;;;;12.35;87.47;102090.16;5099886;27;20034;-84
2022/07/15 01:13:48;;;;;;;19.80;3.28;;;;;;;12.35;87.70;102088.28;5135164;27;20038;-84
2022/07/15 01:16:14;;;;;;;8.17;3.27;;;;;;;12.31;87.47;102083.44;5099816;27;20035;-84
2022/07/15 01:18:40;;;;;;;8.73;2.65;;;;;;;12.31;87.90;102086.97;5099783;27;20455;-84
2022/07/15 01:21:05;;;;;;;11.33;2.60;;;;;;;12.26;87.82;102084.84;5099657;27;20031;-84
2022/07/15 01:23:31;;;;;;;14.07;3.43;;;;;;;12.26;88.40;102081.28;5135040;27;20477;-84
2022/07/15 01:25:56;;;;;;;10.63;3.05;;;;;;;12.22;88.41;102088.16;5116598;27;20352;-84
2022/07/15 01:28:22;;;;;;;10.50;3.20;;;;;;;12.23;88.36;102098.84;5099567;27;20038;-84
2022/07/15 01:30:47;;;;;;;6.73;3.03;;;;;;;12.22;88.18;102107.22;5116879;27;20030;-84
2022/07/15 01:33:13;;;;;;;9.52;2.65;;;;;;;12.20;88.48;102103.84;5100647;27;20035;-85
2022/07/15 01:35:39;;;;;;;8.30;3.10;;;;;;;12.16;88.57;102106.09;5116051;27;20086;-84
2022/07/15 01:38:04;;;;;;;11.25;2.97;;;;;;;12.14;88.54;102100.03;5116206;28;20029;-84
2022/07/15 01:40:30;;;;;;;10.20;2.73;;;;;;;12.12;88.77;102096.69;5116607;27;20473;-84
2022/07/15 01:42:55;;;;;;;8.10;3.07;;;;;;;12.07;89.13;102102.69;5099453;28;20023;-84
2022/07/15 01:45:20;;;;;;;12.07;3.40;;;;;;;12.06;89.50;102108.31;5116197;28;20485;-84
2022/07/15 01:47:48;;;;;;;11.40;3.30;;;;;;;12.05;89.68;102112.91;5116878;28;20289;-84
2022/07/15 01:50:15;;;;;;;10.10;3.22;;;;;;;11.99;89.67;102113.69;5116664;28;20027;-84
2022/07/15 01:52:40;;;;;;;11.57;3.63;;;;;;;11.99;90.14;102116.41;5134950;28;20493;-84
2022/07/15 01:55:08;;;;;;;8.95;2.85;;;;;;;12.00;90.22;102117.25;5099555;28;20121;-84
2022/07/15 01:57:33;;;;;;;14.60;3.00;;;;;;;11.96;89.95;102111.38;5116192;28;20052;-84
2022/07/15 01:59:59;;;;;;;11.77;3.30;;;;;;;11.98;90.23;102116.63;5116376;28;20019;-84
2022/07/15 02:02:24;;;;;;;8.47;3.20;;;;;;;11.94;90.18;102116.16;5116168;28;20485;-84
2022/07/15 02:04:50;;;;;;;12.88;3.28;;;;;;;11.95;90.64;102122.44;5116129;28;20038;-85
2022/07/15 02:07:16;;;;;;;13.10;3.30;;;;;;;11.90;90.13;102121.09;5116194;28;20389;-85
2022/07/15 02:09:43;;;;;;;11.00;3.15;;;;;;;11.91;90.03;102116.50;5115799;28;20023;-84
2022/07/15 02:12:08;;;;;;;11.93;3.40;;;;;;;11.86;90.21;102113.53;5115783;28;20391;-84
2022/07/15 02:14:34;;;;;;;10.70;3.20;;;;;;;11.84;90.70;102110.16;5116012;28;20038;-84
2022/07/15 02:17:00;;;;;;;8.37;3.23;;;;;;;11.83;90.62;102120.19;5116067;28;20027;-84
2022/07/15 02:19:26;;;;;;;10.48;3.42;;;;;;;11.82;90.93;102106.78;5099155;28;20023;-85
2022/07/15 02:21:51;;;;;;;6.30;3.03;;;;;;;11.79;90.61;102108.00;5150507;27;20023;-84
2022/07/15 02:24:19;;;;;;;10.13;3.03;;;;;;;11.81;91.00;102111.41;5116058;28;20489;-84
2022/07/15 02:26:45;;;;;;;13.73;3.77;;;;;;;11.78;91.59;102103.63;5116025;28;20474;-84
2022/07/15 02:29:10;;;;;;;8.65;2.78;;;;;;;11.78;91.82;102111.78;5134204;28;20523;-84
2022/07/15 02:31:36;;;;;;;11.17;3.63;;;;;;;11.77;91.88;102108.22;5098996;28;20067;-84
2022/07/15 02:34:01;;;;;;;8.82;3.28;;;;;;;11.75;92.41;102110.28;5133944;28;20145;-84
2022/07/15 02:36:27;;;;;;;9.37;3.10;;;;;;;11.74;92.02;102100.44;5116750;27;20080;-84
2022/07/15 02:38:53;;;;;;;12.82;3.40;;;;;;;11.73;92.49;102111.50;5102648;27;20043;-84
2022/07/15 02:41:18;;;;;;;8.70;3.00;;;;;;;11.72;92.48;102107.09;5101998;27;20043;-84
2022/07/15 02:43:44;;;;;;;12.27;2.95;;;;;;;11.71;93.39;102102.72;5137841;27;20543;-84
2022/07/15 02:46:10;;;;;;;12.57;3.90;;;;;;;11.74;94.01;102110.47;5119756;27;20464;-84
2022/07/15 02:48:39;;;;;;;11.10;3.30;;;;;;;11.72;93.71;102109.81;5119767;27;20367;-84
2022/07/15 02:51:04;;;;;;;8.27;2.90;;;;;;;11.71;93.37;102116.31;5119141;27;20045;-84
2022/07/15 02:53:30;;;;;;;10.52;3.63;;;;;;;11.70;93.88;102117.34;5119760;27;20109;-84
2022/07/15 02:55:58;;;;;;;12.57;3.43;;;;;;;11.69;93.67;102121.94;5118934;27;20379;-84
2022/07/15 02:58:25;;;;;;;9.68;3.90;;;;;;;11.63;93.08;102119.97;5136728;27;20023;-84
2022/07/15 03:00:51;;;;;;;10.52;3.40;;;;;;;11.65;93.44;102125.19;5119711;27;20027;-84
2022/07/15 03:03:16;;;;;;;11.97;3.43;;;;;;;11.56;92.89;102127.22;5085295;27;20164;-84
2022/07/15 03:05:41;;;;;;;9.55;3.10;;;;;;;11.56;92.72;102138.94;5119053;27;20039;-84
2022/07/15 03:08:07;;;;;;;11.77;4.10;;;;;;;11.50;93.00;102142.41;5119167;27;20031;-84
2022/07/15 03:10:33;;;;;;;11.70;3.80;;;;;;;11.48;93.03;102149.88;5102266;27;20031;-84
2022/07/15 03:12:58;;;;;;;8.45;3.45;;;;;;;11.44;93.90;102150.47;5119274;27;20034;-84
2022/07/15 03:15:24;;;;;;;8.20;3.27;;;;;;;11.41;93.65;102147.09;5119347;27;20159;-84
2022/07/15 03:17:49;;;;;;;8.83;3.50;;;;;;;11.41;93.51;102135.38;5101938;27;20398;-84
2022/07/15 03:20:15;;;;;;;12.32;3.60;;;;;;;11.41;93.61;102149.81;5118813;27;20497;-84
2022/07/15 03:22:43;;;;;;;15.93;4.00;;;;;;;11.41;93.67;102152.53;5101925;27;20023;-84
2022/07/15 03:25:09;;;;;;;11.10;3.53;;;;;;;11.43;93.56;102149.63;5102270;27;20069;-84
2022/07/15 03:27:34;;;;;;;9.03;3.10;;;;;;;11.43;93.67;102148.78;5102262;27;20118;-84
2022/07/15 03:30:00;;;;;;;11.43;3.53;;;;;;;11.44;94.06;102150.47;5137228;27;20429;-84
2022/07/15 03:32:26;;;;;;;9.35;3.30;;;;;;;11.46;94.26;102157.41;5135922;27;20096;-84
2022/07/15 03:34:52;;;;;;;10.73;3.47;;;;;;;11.50;94.30;102160.56;5118493;27;20096;-85
2022/07/15 03:37:17;;;;;;;12.83;3.30;;;;;;;11.53;94.20;102166.50;5153328;27;20031;-84
2022/07/15 03:39:43;;;;;;;9.43;3.03;;;;;;;11.59;93.48;102159.47;5136916;27;20479;-84
2022/07/15 03:42:09;;;;;;;11.90;3.33;;;;;;;11.61;93.05;102159.25;5118716;27;20058;-84
2022/07/15 03:44:34;;;;;;;7.57;3.20;;;;;;;11.66;93.19;102168.53;5119210;27;20072;-84
2022/07/15 03:47:00;;;;;;;8.15;3.13;;;;;;;11.71;94.06;102167.97;5136831;27;20039;-84
2022/07/15 03:49:25;;;;;;;10.40;3.30;;;;;;;11.75;93.78;102167.38;5101142;27;20027;-84
2022/07/15 03:51:51;;;;;;;9.32;3.22;;;;;;;11.83;94.49;102176.47;5118277;27;20050;-84
2022/07/15 03:54:16;;;;;;;13.40;3.50;;;;;;;11.89;94.63;102181.97;5118461;27;20035;-84
2022/07/15 03:56:42;;;;;;;11.27;3.47;;;;;;;11.94;94.53;102178.69;5118072;27;20026;-84
2022/07/15 03:59:08;;;;;;;7.17;3.23;;;;;;;11.93;93.18;102174.31;5101124;27;20024;-84
2022/07/15 04:01:33;;;;;;;7.57;3.60;;;;;;;12.00;93.67;102186.13;5101162;27;20624;-83
2022/07/15 04:03:59;;;;;;;14.17;3.20;;;;;;;12.06;93.76;102174.47;5117908;27;20087;-85
2022/07/15 04:06:25;;;;;;;9.73;3.67;;;;;;;12.11;92.61;102173.88;5100995;27;20035;-84
2022/07/15 04:08:51;;;;;;;13.52;3.75;;;;;;;12.20;92.34;102177.31;5118019;27;20026;-85
2022/07/15 04:11:18;;;;;;;8.45;3.30;;;;;;;12.22;91.27;102180.69;5136648;27;20031;-86
2022/07/15 04:13:43;;;;;;;11.87;3.53;;;;;;;12.28;92.27;102183.47;5136120;27;20115;-87
2022/07/15 04:16:11;;;;;;;7.78;3.22;;;;;;;12.38;91.69;102185.84;5117891;27;20374;-84
2022/07/15 04:18:37;;;;;;;9.77;3.10;;;;;;;12.41;90.48;102187.34;5117844;27;20046;-84
2022/07/15 04:21:03;;;;;;;9.17;3.27;;;;;;;12.42;89.82;102186.31;5117758;27;20471;-84
2022/07/15 04:23:28;;;;;;;10.52;3.25;;;;;;;12.49;90.38;102181.78;5117963;27;20031;-84
2022/07/15 04:25:54;;;;;;;12.23;4.17;;;;;;;12.55;89.83;102181.00;5100825;27;20101;-84
2022/07/15 04:28:20;;;;;;;9.33;3.20;;;;;;;12.60;89.10;102177.69;5100510;27;20031;-85
2022/07/15 04:30:46;;;;;;;10.63;3.30;;;;;;;12.67;89.29;102178.59;5100435;27;20027;-84
2022/07/15 04:33:11;;;;;;;13.30;3.58;;;;;;;12.71;88.44;102181.75;5100700;27;20042;-85
2022/07/15 04:35:38;;;;;;;6.73;3.33;;;;;;;12.79;88.27;102171.56;5117264;27;20068;-85
2022/07/15 04:38:03;;;;;;;16.15;3.55;;;;;;;12.84;88.12;102179.13;5100623;27;20128;-85
2022/07/15 04:40:29;;;;;;;11.87;3.60;;;;;;;12.88;87.54;102185.03;5100489;27;20077;-84
2022/07/15 04:42:55;;;;;;;11.73;3.57;;;;;;;12.88;87.71;102188.59;5134555;27;20027;-84
2022/07/15 04:45:20;;;;;;;14.90;3.90;;;;;;;12.94;87.96;102187.78;5117597;27;20364;-84
2022/07/15 04:47:45;;;;;;;15.07;3.93;;;;;;;12.95;87.39;102184.03;5100312;27;20102;-84
2022/07/15 04:52:55;;;;;;;10.73;3.40;;;;;;;13.07;86.82;102192.50;5136122;27;20046;-84
2022/07/15 04:55:20;;;;;;;14.48;3.67;;;;;;;13.11;86.59;102195.66;5117042;27;20035;-84
2022/07/15 04:57:46;;;;;;;14.17;3.80;;;;;;;13.12;86.57;102194.63;5100267;27;20037;-85
2022/07/15 05:00:11;;;;;;;11.60;3.40;;;;;;;13.07;87.38;102187.06;5083300;27;20519;-84
2022/07/15 05:02:37;;;;;;;11.90;3.38;;;;;;;13.03;86.51;102195.81;5083875;27;20039;-85
2022/07/15 05:05:03;;;;;;;14.00;4.30;;;;;;;12.95;86.84;102189.47;5134186;27;20031;-84
2022/07/15 05:07:28;;;;;;;10.50;4.07;;;;;;;12.88;87.37;102194.03;5099825;27;20035;-85
2022/07/15 05:09:54;;;;;;;22.92;4.43;;;;;;;12.82;87.50;102192.94;5117769;27;20019;-91
2022/07/15 05:12:19;;;;;;;19.67;3.80;;;;;;;12.81;87.50;102194.00;5101620;27;20031;-90
2022/07/15 05:14:45;;;;;;;13.83;4.17;;;;;;;12.77;87.45;102191.84;5136051;27;20121;-91
2022/07/15 05:17:10;;;;;;;16.75;4.07;;;;;;;12.78;87.75;102196.25;5101503;27;20120;-90
2022/07/15 05:19:36;;;;;;;17.57;4.40;;;;;;;12.80;87.78;102195.03;5136663;27;20049;-93
2022/07/15 05:22:02;;;;;;;10.95;3.78;;;;;;;12.81;87.83;102198.59;5118303;27;20023;-90
2022/07/15 05:24:27;;;;;;;18.27;4.60;;;;;;;12.84;87.62;102192.75;5100742;27;20479;-90
2022/07/15 05:26:53;;;;;;;14.88;3.55;;;;;;;12.90;87.55;102196.56;5135671;27;20026;-91
2022/07/15 05:29:21;;;;;;;15.33;4.07;;;;;;;12.92;87.72;102202.66;5117890;27;20386;-90
2022/07/15 05:31:48;;;;;;;12.82;4.38;;;;;;;12.94;87.37;102198.69;5136599;27;20027;-93
2022/07/15 05:34:13;;;;;;;14.10;4.18;;;;;;;13.01;87.40;102193.31;5117225;28;20038;-88
2022/07/15 05:36:39;;;;;;;13.33;4.07;;;;;;;13.05;87.58;102199.19;5117540;27;20051;-90
2022/07/15 05:39:04;;;;;;;16.63;4.43;;;;;;;13.10;87.53;102194.81;5117993;28;20023;-94
2022/07/15 05:41:32;;;;;;;8.37;4.20;;;;;;;13.15;87.51;102199.66;5117405;27;20045;-90
2022/07/15 05:43:57;;;;;;;10.65;3.67;;;;;;;13.22;87.05;102199.72;5117780;27;20027;-89
2022/07/15 05:46:23;;;;;;;11.90;4.15;;;;;;;13.27;87.21;102200.81;5134860;27;20033;-88
2022/07/15 05:48:49;;;;;;;10.27;4.13;;;;;;;13.27;86.80;102195.38;5100756;28;20042;-88
2022/07/15 05:51:14;;;;;;;10.10;4.00;;;;;;;13.32;86.65;102195.59;5100465;28;20508;-91
2022/07/15 05:53:40;;;;;;;15.23;4.23;;;;;;;13.40;86.79;102197.34;5118305;28;20039;-89
2022/07/15 05:56:06;;;;;;;14.17;4.17;;;;;;;13.48;86.18;102193.63;5102348;28;20035;-89
2022/07/15 05:58:31;;;;;;;12.10;3.63;;;;;;;13.50;86.16;102186.06;5099997;28;20030;-89
2022/07/15 06:00:56;;;;;;;9.97;3.47;;;;;;;13.56;85.47;102193.44;5134789;28;20027;-89
2022/07/15 06:03:22;;;;;;;8.13;3.03;;;;;;;13.56;85.39;102185.25;5135034;28;20471;-89
2022/07/15 06:05:47;;;;;;;9.67;3.50;;;;;;;13.64;85.15;102198.72;5151134;27;20027;-89
2022/07/15 06:08:13;;;;;;;9.48;3.97;;;;;;;13.67;85.22;102189.28;5117053;28;20027;-90
2022/07/15 06:10:41;;;;;;;11.60;3.47;;;;;;;13.73;84.82;102193.94;5117240;28;20126;-90
2022/07/15 06:13:07;;;;;;;7.72;3.00;;;;;;;13.83;84.48;102188.94;5138630;27;20513;-88
2022/07/15 06:15:36;;;;;;;12.17;3.33;;;;;;;13.92;84.98;102191.47;5120969;27;20031;-90
2022/07/15 06:18:02;;;;;;;7.60;3.10;;;;;;;13.96;84.03;102192.75;5138449;27;20046;-90
2022/07/15 06:20:28;;;;;;;10.57;4.18;;;;;;;14.00;83.27;102196.75;5139591;27;20106;-90
2022/07/15 06:22:53;;;;;;;11.77;3.13;;;;;;;14.05;82.81;102194.25;5121142;27;20023;-90
2022/07/15 06:25:19;;;;;;;13.65;3.35;;;;;;;14.08;82.51;102193.00;5120567;27;20039;-89
2022/07/15 06:27:47;;;;;;;6.70;2.40;;;;;;;14.12;81.75;102188.81;5139411;27;20031;-89
2022/07/15 06:30:12;;;;;;;10.88;3.00;;;;;;;14.16;82.78;102188.19;5121048;27;20030;-89
2022/07/15 06:32:38;;;;;;;8.97;2.37;;;;;;;14.24;81.68;102189.06;5121403;27;20355;-89
2022/07/15 06:35:04;;;;;;;7.70;2.37;;;;;;;14.27;80.36;102188.63;5121182;27;20030;-89
2022/07/15 06:37:29;;;;;;;8.07;1.98;;;;;;;14.32;80.80;102189.69;5139124;27;20035;-89
2022/07/15 06:39:55;;;;;;;7.00;1.73;;;;;;;14.35;78.21;102181.09;5120546;27;20030;-88
2022/07/15 06:42:21;;;;;;;4.90;1.15;;;;;;;14.43;78.25;102187.41;5104916;27;20031;-91
2022/07/15 06:44:47;;;;;;;5.40;1.30;;;;;;;14.48;78.28;102184.88;5139452;27;20031;-89
2022/07/15 06:47:13;;;;;;;9.63;1.10;;;;;;;14.56;76.57;102196.44;5121813;27;20027;-90
2022/07/15 06:49:38;;;;;;;5.82;1.30;;;;;;;14.65;75.45;102185.34;5121342;27;20027;-90
2022/07/15 06:52:04;;;;;;;4.77;1.17;;;;;;;14.77;75.65;102191.00;5120704;27;20047;-92
2022/07/15 06:54:30;;;;;;;6.22;1.25;;;;;;;14.83;76.04;102190.16;5120492;27;20031;-90
2022/07/15 06:56:57;;;;;;;7.28;1.27;;;;;;;14.85;74.92;102191.66;5103563;27;20035;-90
2022/07/15 06:59:22;;;;;;;7.75;1.40;;;;;;;14.90;75.54;102188.28;5121550;27;20031;-90
2022/07/15 07:01:48;;;;;;;7.07;1.23;;;;;;;14.97;74.80;102189.09;5121031;27;20385;-90
2022/07/15 07:04:13;;;;;;;11.00;1.37;;;;;;;14.99;73.08;102189.72;5138269;27;20039;-90
2022/07/15 07:06:38;;;;;;;5.43;1.67;;;;;;;15.02;73.85;102192.03;5155210;27;20481;-90
2022/07/15 07:09:04;;;;;;;9.23;1.45;;;;;;;15.06;70.89;102185.09;5103654;27;20038;-90
2022/07/15 07:11:30;;;;;;;6.30;0.90;;;;;;;15.15;71.43;102193.09;5120477;27;20432;-90
2022/07/15 07:13:56;;;;;;;3.30;1.00;;;;;;;15.22;69.40;102200.22;5120119;27;20058;-90
2022/07/15 07:16:21;;;;;;;5.10;0.98;;;;;;;15.30;68.82;102192.84;5120041;27;20015;-90
2022/07/15 07:18:50;;;;;;;4.93;1.15;;;;;;;15.41;68.12;102194.88;5120879;27;20035;-90
2022/07/15 07:21:15;;;;;;;9.45;0.80;;;;;;;15.46;69.25;102203.31;5104141;27;20023;-90
2022/07/15 07:23:44;;;;;;;5.97;0.93;;;;;;;15.49;68.02;102200.13;5103466;27;20054;-90
2022/07/15 07:26:11;;;;;;;5.50;1.10;;;;;;;15.55;65.43;102198.44;5119576;27;20467;-86
2022/07/15 07:28:40;;;;;;;1.90;0.67;;;;;;;15.59;64.54;102203.25;5119135;27;20068;-90
2022/07/15 07:31:09;;;;;;;4.78;0.90;;;;;;;15.60;65.82;102206.81;5137327;27;20019;-86
2022/07/15 07:33:35;;;;;;;6.88;1.02;;;;;;;15.62;65.74;102204.72;5137259;27;20066;-87
2022/07/15 07:36:03;;;;;;;5.70;1.02;;;;;;;15.63;66.21;102200.91;5137248;27;20030;-89
2022/07/15 07:38:28;;;;;;;3.60;0.80;;;;;;;15.69;65.10;102194.56;5118814;27;20172;-89
2022/07/15 07:40:53;;;;;;;6.15;0.73;;;;;;;15.75;64.40;102212.03;5084635;27;20035;-89
2022/07/15 07:43:21;;;;;;;11.07;1.00;;;;;;;15.78;63.59;102214.34;5136187;27;20027;-90
2022/07/15 07:45:47;;;;;;;3.55;0.60;;;;;;;15.80;64.91;102217.72;5118890;27;20035;-92
2022/07/15 07:48:16;;;;;;;3.17;0.67;;;;;;;15.86;62.38;102222.31;5118562;27;20390;-92
2022/07/15 07:50:43;;;;;;;5.75;0.95;;;;;;;15.88;62.73;102222.94;5118483;27;20490;-89
2022/07/15 07:53:12;;;;;;;5.57;1.02;;;;;;;15.88;61.02;102213.91;5118979;27;20478;-90
2022/07/15 07:55:38;;;;;;;2.67;0.60;;;;;;;15.88;61.53;102213.91;5118371;27;20035;-86
2022/07/15 07:58:04;;;;;;;5.97;1.10;;;;;;;15.95;62.04;102223.75;5118504;27;20028;-89
2022/07/15 08:00:33;;;;;;;6.65;0.93;;;;;;;15.98;62.97;102214.28;5136649;27;20038;-89
2022/07/15 08:03:00;;;;;;;5.03;1.00;;;;;;;16.02;63.31;102207.31;5101880;27;20035;-86
2022/07/15 08:05:27;;;;;;;4.07;0.93;;;;;;;16.05;62.74;102217.00;5118093;27;20117;-85
2022/07/15 08:08:13;;;;;;;4.10;0.85;;;;;;;16.07;63.42;102207.47;5117755;27;20470;-86
2022/07/15 08:10:44;;;;;;;2.60;0.70;;;;;;;16.13;62.88;102214.81;5118163;27;20023;-86
2022/07/15 08:13:10;;;;;;;7.22;1.27;;;;;;;16.20;62.84;102223.00;5117662;27;20027;-87
2022/07/15 08:15:35;;;;;;;3.20;0.60;;;;;;;16.20;59.27;102214.78;5117701;27;20381;-89
2022/07/15 08:18:01;;;;;;;5.63;0.80;;;;;;;16.25;59.02;102209.47;5118599;27;20031;-87
2022/07/15 08:20:28;;;;;;;3.90;0.90;;;;;;;16.31;59.75;102219.56;5135753;27;20775;-85
2022/07/15 08:22:58;;;;;;;4.68;0.80;;;;;;;16.36;61.03;102215.31;5100528;27;20027;-86
2022/07/15 08:25:25;;;;;;;4.72;1.15;;;;;;;16.36;59.62;102216.16;5151875;27;20031;-85
2022/07/15 08:27:51;;;;;;;3.43;0.77;;;;;;;16.37;60.43;102217.84;5117827;27;20035;-86
2022/07/15 08:30:16;;;;;;;3.92;0.90;;;;;;;16.40;61.18;102220.16;5101189;27;20031;-86
2022/07/15 08:32:41;;;;;;;3.20;0.80;;;;;;;16.41;60.17;102229.19;5116986;27;20027;-86
2022/07/15 08:35:07;;;;;;;5.90;0.80;;;;;;;16.42;59.21;102217.19;5133610;27;20027;-85
2022/07/15 08:37:33;;;;;;;2.58;0.50;;;;;;;16.43;57.33;102216.97;5151416;27;20019;-85
2022/07/15 08:39:58;;;;;;;3.80;0.80;;;;;;;16.48;57.56;102217.13;5083392;27;20076;-86
2022/07/15 08:42:23;;;;;;;4.30;0.63;;;;;;;16.57;57.63;102211.38;5151879;27;20082;-85
2022/07/15 08:44:49;;;;;;;3.17;0.70;;;;;;;16.62;58.31;102200.59;5117037;27;20019;-85
2022/07/15 08:47:14;;;;;;;5.45;1.25;;;;;;;16.64;58.47;102203.97;5100692;27;20043;-87
2022/07/15 08:49:44;;;;;;;6.40;0.70;;;;;;;16.67;58.96;102189.81;5134991;27;20091;-87
2022/07/15 08:52:11;;;;;;;2.78;0.80;;;;;;;16.74;58.93;102198.81;5134982;27;20058;-86
2022/07/15 08:54:37;;;;;;;5.75;1.00;;;;;;;16.84;58.88;102199.16;5135311;27;20038;-86
2022/07/15 08:57:02;;;;;;;2.43;0.70;;;;;;;16.94;58.06;102203.31;5116543;27;20043;-86
2022/07/15 08:59:28;;;;;;;4.37;1.00;;;;;;;17.01;59.38;102199.44;5100195;27;20035;-86
2022/07/15 09:01:53;;;;;;;4.63;0.70;;;;;;;17.09;57.48;102203.78;5118005;27;20064;-87
2022/07/15 09:04:19;;;;;;;6.90;1.10;;;;;;;17.16;57.54;102207.28;5117072;27;20087;-87
2022/07/15 09:06:47;;;;;;;3.93;0.90;;;;;;;17.20;55.10;102207.69;5133855;27;20035;-86
2022/07/15 09:09:26;;;;;;;6.33;0.73;;;;;;;17.27;55.99;102191.16;5135391;27;20285;-87
2022/07/15 09:12:18;;;;;;;7.75;1.15;;;;;;;17.36;56.92;102195.25;5116945;27;20471;-86
2022/07/15 09:14:44;;;;;;;2.45;0.80;;;;;;;17.47;56.37;102189.03;5112921;27;20035;-85
2022/07/15 09:17:10;;;;;;;3.28;0.90;;;;;;;17.63;56.65;102193.06;5117099;27;20035;-85
2022/07/15 09:19:58;;;;;;;7.67;1.23;;;;;;;17.72;56.18;102190.84;5135484;27;20027;-87
2022/07/15 09:22:25;;;;;;;4.07;0.70;;;;;;;17.85;55.83;102192.59;5116145;27;20024;-87
2022/07/15 09:25:17;;;;;;;2.47;0.83;;;;;;;17.98;56.01;102191.56;5116386;27;20066;-87
2022/07/15 09:27:44;;;;;;;4.55;1.05;;;;;;;18.11;54.18;102188.63;5112151;27;20035;-86
2022/07/15 09:36:20;;;;;;;2.75;0.80;;;;;;;18.61;53.17;102198.44;5135181;27;20421;-87
2022/07/15 09:38:57;;;;;;;5.93;0.80;;;;;;;18.60;49.75;102185.78;5116244;27;20084;-87
2022/07/15 09:41:41;;;;;;;2.88;0.77;;;;;;;18.70;51.48;102193.44;5116518;28;20033;-86
2022/07/15 09:44:10;;;;;;;7.53;1.05;;;;;;;18.82;51.45;102193.44;5135231;27;20046;-86
2022/07/15 09:46:49;;;;;;;4.38;0.88;;;;;;;18.94;50.84;102186.06;5133682;27;20072;-86
2022/07/15 09:49:23;;;;;;;3.00;0.80;;;;;;;19.14;50.62;102191.22;5117053;28;20477;-86
2022/07/15 09:51:50;;;;;;;2.50;1.00;;;;;;;19.33;50.50;102185.56;5115992;28;20050;-87
2022/07/15 09:54:17;;;;;;;3.88;0.65;;;;;;;19.50;49.24;102183.72;5117085;28;20417;-86
2022/07/15 09:56:48;;;;;;;2.05;0.70;;;;;;;19.59;48.47;102178.66;5116288;28;20031;-87
2022/07/15 09:59:14;;;;;;;1.33;0.80;;;;;;;19.80;48.42;102183.56;5115087;28;20536;-86
2022/07/15 10:01:41;;;;;;;4.68;1.00;;;;;;;19.88;47.74;102187.81;5116055;28;20051;-87
2022/07/15 10:04:06;;;;;;;4.30;0.80;;;;;;;20.01;47.75;102180.38;5115918;28;20027;-86
2022/07/15 10:06:38;;;;;;;5.60;0.70;;;;;;;19.97;46.80;102180.00;5099853;28;20110;-86
2022/07/15 10:09:05;;;;;;;2.70;0.95;;;;;;;20.08;48.03;102173.63;5099820;28;20580;-87
2022/07/15 10:11:33;;;;;;;5.80;0.80;;;;;;;20.18;45.50;102175.69;5115975;28;20471;-86
2022/07/15 10:14:08;;;;;;;4.07;0.75;;;;;;;20.30;45.26;102178.41;5115584;28;20088;-87
2022/07/15 10:16:55;;;;;;;4.85;1.00;;;;;;;20.46;45.59;102172.09;5115821;28;20077;-85
2022/07/15 10:19:38;;;;;;;6.13;1.00;;;;;;;20.73;46.85;102170.59;5134156;28;20420;-85
2022/07/15 10:22:31;;;;;;;3.55;0.77;;;;;;;21.00;44.79;102163.28;5134264;28;20518;-85
2022/07/15 10:25:13;;;;;;;2.93;0.70;;;;;;;21.05;44.79;102165.28;5116340;28;20489;-85
2022/07/15 10:28:03;;;;;;;2.90;1.10;;;;;;;21.32;44.42;102156.28;5116393;28;20106;-86
2022/07/15 10:30:29;;;;;;;4.45;0.90;;;;;;;21.79;42.71;102155.75;5116051;28;20474;-85
2022/07/15 10:33:03;;;;;;;3.40;0.98;;;;;;;21.87;43.38;102152.50;5132883;27;20058;-85
2022/07/15 10:35:41;;;;;;;3.63;0.85;;;;;;;21.79;41.87;102149.38;5115775;28;20038;-86
2022/07/15 10:38:26;;;;;;;3.40;1.00;;;;;;;21.70;44.45;102149.00;5149947;27;20019;-86
2022/07/15 10:41:21;;;;;;;3.13;0.80;;;;;;;21.98;43.62;102142.41;5115565;28;20035;-85
2022/07/15 10:43:54;;;;;;;4.30;1.20;;;;;;;22.37;42.15;102152.47;5095798;28;20108;-85
2022/07/15 10:46:23;;;;;;;4.03;0.95;;;;;;;22.88;38.89;102139.03;5115743;28;20637;-86
2022/07/15 10:48:50;;;;;;;3.42;0.90;;;;;;;23.08;38.12;102151.28;5115665;28;20038;-87
2022/07/15 10:51:34;;;;;;;3.67;0.87;;;;;;;23.29;39.71;102146.72;5116001;28;20184;-86
2022/07/15 10:54:01;;;;;;;5.63;1.30;;;;;;;23.66;37.58;102142.97;5115849;28;20473;-86
2022/07/15 10:56:30;;;;;;;4.50;1.13;;;;;;;23.62;37.87;102131.63;5115488;28;20024;-87
2022/07/15 10:59:11;;;;;;;2.35;0.80;;;;;;;24.02;39.81;102134.78;5118931;27;20026;-87
2022/07/15 11:01:38;;;;;;;3.88;0.93;;;;;;;24.14;37.15;102121.47;5102326;27;20084;-87
2022/07/15 11:04:19;;;;;;;4.07;1.23;;;;;;;24.19;37.68;102122.59;5119208;27;20055;-87
2022/07/15 11:07:02;;;;;;;2.05;1.00;;;;;;;23.99;38.07;102129.75;5137860;27;20019;-87
2022/07/15 11:09:50;;;;;;;2.17;0.98;;;;;;;24.16;38.40;102130.31;5118700;27;20118;-86
2022/07/15 11:12:20;;;;;;;2.15;0.70;;;;;;;24.32;35.96;102125.63;5137435;27;20123;-87
2022/07/15 11:14:51;;;;;;;3.03;1.00;;;;;;;24.80;35.14;102119.78;5119595;27;20064;-87
2022/07/15 11:17:20;;;;;;;2.23;0.90;;;;;;;25.19;35.12;102119.09;5119244;27;20046;-87
2022/07/15 11:19:49;;;;;;;2.80;0.85;;;;;;;25.47;35.53;102119.53;5119586;27;20027;-87
2022/07/15 11:22:17;;;;;;;3.10;0.90;;;;;;;25.82;34.14;102117.69;5137201;27;20039;-87
2022/07/15 11:24:43;;;;;;;4.25;1.10;;;;;;;26.33;32.21;102116.47;5118844;27;20118;-87
2022/07/15 11:27:09;;;;;;;3.60;1.30;;;;;;;27.78;30.23;102110.03;5136682;27;20122;-87
2022/07/15 11:29:58;;;;;;;4.38;1.10;;;;;;;30.20;29.62;102119.22;5101346;27;20019;-87
2022/07/15 11:32:24;;;;;;;2.20;1.00;;;;;;;32.75;23.99;102101.66;5153719;27;20134;-87
2022/07/15 11:34:53;;;;;;;1.77;1.08;;;;;;;33.98;22.34;102099.66;5136713;27;20031;-87
2022/07/15 11:37:24;;;;;;;1.55;1.05;;;;;;;33.50;23.05;102095.41;5136875;27;20115;-87